sensor_id;sensor_type;location;lat;lon;timestamp;temperature;humidity
37289;DHT22;23174;49.462;11.000;2022-08-25T00:02:00;21.10;99.90
37289;DHT22;23174;49.462;11.000;2022-08-25T00:04:03;21.20;99.90
37289;DHT22;23174;49.462;11.000;2022-08-25T00:06:05;21.20;99.90
37289;DHT22;23174;49.462;11.000;2022-08-25T00:08:06;21.10;99.90
37289;DHT22;23174;49.462;11.000;2022-08-25T00:10:07;21.10;99.90
37289;DHT22;23174;49.462;11.000;2022-08-25T00:12:08;21.10;99.90
37289;DHT22;23174;49.462;11.000;2022-08-25T00:14:13;21.20;99.90
37289;DHT22;23174;49.462;11.000;2022-08-25T00:16:16;21.10;99.90
37289;DHT22;23174;49.462;11.000;2022-08-25T00:18:17;21.10;99.90
37289;DHT22;23174;49.462;11.000;2022-08-25T00:20:18;21.10;99.90
37289;DHT22;23174;49.462;11.000;2022-08-25T00:22:18;21.10;99.90
37289;DHT22;23174;49.462;11.000;2022-08-25T00:24:20;21.10;99.90
37289;DHT22;23174;49.462;11.000;2022-08-25T00:26:21;21.10;99.90
37289;DHT22;23174;49.462;11.000;2022-08-25T00:28:22;21.10;99.90
37289;DHT22;23174;49.462;11.000;2022-08-25T00:30:23;21.10;99.90
37289;DHT22;23174;49.462;11.000;2022-08-25T00:32:23;21.00;99.90
37289;DHT22;23174;49.462;11.000;2022-08-25T00:34:28;21.00;99.90
37289;DHT22;23174;49.462;11.000;2022-08-25T00:36:29;21.00;99.90
37289;DHT22;23174;49.462;11.000;2022-08-25T00:38:30;21.00;99.90
37289;DHT22;23174;49.462;11.000;2022-08-25T00:40:31;21.00;99.90
37289;DHT22;23174;49.462;11.000;2022-08-25T00:42:31;21.00;99.90
37289;DHT22;23174;49.462;11.000;2022-08-25T00:44:32;21.00;99.90
37289;DHT22;23174;49.462;11.000;2022-08-25T00:46:52;21.10;99.90
37289;DHT22;23174;49.462;11.000;2022-08-25T00:49:00;21.00;99.90
37289;DHT22;23174;49.462;11.000;2022-08-25T00:51:02;21.00;99.90
37289;DHT22;23174;49.462;11.000;2022-08-25T00:53:03;21.00;99.90
37289;DHT22;23174;49.462;11.000;2022-08-25T00:55:11;21.00;99.90
37289;DHT22;23174;49.462;11.000;2022-08-25T00:57:15;21.10;99.90
37289;DHT22;23174;49.462;11.000;2022-08-25T00:59:19;21.10;99.90
37289;DHT22;23174;49.462;11.000;2022-08-25T01:01:20;20.90;99.90
37289;DHT22;23174;49.462;11.000;2022-08-25T01:03:23;20.80;99.90
37289;DHT22;23174;49.462;11.000;2022-08-25T01:05:26;20.80;99.90
37289;DHT22;23174;49.462;11.000;2022-08-25T01:07:27;20.50;99.90
37289;DHT22;23174;49.462;11.000;2022-08-25T01:09:29;20.60;99.90
37289;DHT22;23174;49.462;11.000;2022-08-25T01:11:33;20.50;99.90
37289;DHT22;23174;49.462;11.000;2022-08-25T01:13:40;20.40;99.90
37289;DHT22;23174;49.462;11.000;2022-08-25T01:15:42;20.50;99.90
37289;DHT22;23174;49.462;11.000;2022-08-25T01:17:52;20.50;99.90
37289;DHT22;23174;49.462;11.000;2022-08-25T01:19:53;20.50;99.90
37289;DHT22;23174;49.462;11.000;2022-08-25T01:21:55;20.50;99.90
37289;DHT22;23174;49.462;11.000;2022-08-25T01:23:57;20.60;99.90
37289;DHT22;23174;49.462;11.000;2022-08-25T01:26:26;20.70;99.90
37289;DHT22;23174;49.462;11.000;2022-08-25T01:28:28;20.60;99.90
37289;DHT22;23174;49.462;11.000;2022-08-25T01:30:28;20.70;99.90
37289;DHT22;23174;49.462;11.000;2022-08-25T01:32:33;20.70;99.90
37289;DHT22;23174;49.462;11.000;2022-08-25T01:34:37;20.70;99.90
37289;DHT22;23174;49.462;11.000;2022-08-25T01:36:39;20.70;99.90
37289;DHT22;23174;49.462;11.000;2022-08-25T01:38:40;20.70;99.90
37289;DHT22;23174;49.462;11.000;2022-08-25T01:40:41;20.60;99.90
37289;DHT22;23174;49.462;11.000;2022-08-25T01:44:44;20.60;99.90
37289;DHT22;23174;49.462;11.000;2022-08-25T01:46:45;20.60;99.90
37289;DHT22;23174;49.462;11.000;2022-08-25T01:48:45;20.60;99.90
37289;DHT22;23174;49.462;11.000;2022-08-25T01:50:47;20.50;99.90
37289;DHT22;23174;49.462;11.000;2022-08-25T01:53:07;20.50;99.90
37289;DHT22;23174;49.462;11.000;2022-08-25T01:55:09;20.50;99.90
37289;DHT22;23174;49.462;11.000;2022-08-25T01:57:09;20.50;99.90
37289;DHT22;23174;49.462;11.000;2022-08-25T01:59:10;20.50;99.90
37289;DHT22;23174;49.462;11.000;2022-08-25T02:01:18;20.50;99.90
37289;DHT22;23174;49.462;11.000;2022-08-25T02:03:19;20.50;99.90
37289;DHT22;23174;49.462;11.000;2022-08-25T02:05:20;20.40;99.90
37289;DHT22;23174;49.462;11.000;2022-08-25T02:07:20;20.40;99.90
37289;DHT22;23174;49.462;11.000;2022-08-25T02:09:21;20.40;99.90
37289;DHT22;23174;49.462;11.000;2022-08-25T02:11:21;20.40;99.90
37289;DHT22;23174;49.462;11.000;2022-08-25T02:13:23;20.40;99.90
37289;DHT22;23174;49.462;11.000;2022-08-25T02:15:24;20.40;99.90
37289;DHT22;23174;49.462;11.000;2022-08-25T02:17:25;20.40;99.90
37289;DHT22;23174;49.462;11.000;2022-08-25T02:19:26;20.40;99.90
37289;DHT22;23174;49.462;11.000;2022-08-25T02:21:27;20.40;99.90
37289;DHT22;23174;49.462;11.000;2022-08-25T02:23:27;20.40;99.90
37289;DHT22;23174;49.462;11.000;2022-08-25T02:25:29;20.30;99.90
37289;DHT22;23174;49.462;11.000;2022-08-25T02:27:29;20.30;99.90
37289;DHT22;23174;49.462;11.000;2022-08-25T02:29:30;20.20;99.90
37289;DHT22;23174;49.462;11.000;2022-08-25T02:31:31;20.20;99.90
37289;DHT22;23174;49.462;11.000;2022-08-25T02:33:32;20.20;99.90
37289;DHT22;23174;49.462;11.000;2022-08-25T02:35:33;20.20;99.90
37289;DHT22;23174;49.462;11.000;2022-08-25T02:37:35;20.10;99.90
37289;DHT22;23174;49.462;11.000;2022-08-25T02:39:35;20.10;99.90
37289;DHT22;23174;49.462;11.000;2022-08-25T02:41:36;20.10;99.90
37289;DHT22;23174;49.462;11.000;2022-08-25T02:43:40;20.10;99.90
37289;DHT22;23174;49.462;11.000;2022-08-25T02:45:41;20.10;99.90
37289;DHT22;23174;49.462;11.000;2022-08-25T02:47:42;20.10;99.90
37289;DHT22;23174;49.462;11.000;2022-08-25T02:49:42;20.10;99.90
37289;DHT22;23174;49.462;11.000;2022-08-25T02:51:43;20.00;99.90
37289;DHT22;23174;49.462;11.000;2022-08-25T02:53:43;20.00;99.90
37289;DHT22;23174;49.462;11.000;2022-08-25T02:55:50;20.00;99.90
37289;DHT22;23174;49.462;11.000;2022-08-25T02:57:51;20.00;99.90
37289;DHT22;23174;49.462;11.000;2022-08-25T02:59:51;20.00;99.90
37289;DHT22;23174;49.462;11.000;2022-08-25T03:01:52;20.00;99.90
37289;DHT22;23174;49.462;11.000;2022-08-25T03:03:53;20.00;99.90
37289;DHT22;23174;49.462;11.000;2022-08-25T03:05:54;20.00;99.90
37289;DHT22;23174;49.462;11.000;2022-08-25T03:07:56;20.00;99.90
37289;DHT22;23174;49.462;11.000;2022-08-25T03:09:57;19.90;99.90
37289;DHT22;23174;49.462;11.000;2022-08-25T03:11:57;19.90;99.90
37289;DHT22;23174;49.462;11.000;2022-08-25T03:13:58;19.80;99.90
37289;DHT22;23174;49.462;11.000;2022-08-25T03:16:00;19.80;99.90
37289;DHT22;23174;49.462;11.000;2022-08-25T03:18:00;19.70;99.90
37289;DHT22;23174;49.462;11.000;2022-08-25T03:20:04;19.80;99.90
37289;DHT22;23174;49.462;11.000;2022-08-25T03:22:05;19.80;99.90
37289;DHT22;23174;49.462;11.000;2022-08-25T03:24:06;19.90;99.90
37289;DHT22;23174;49.462;11.000;2022-08-25T03:26:07;19.80;99.90
37289;DHT22;23174;49.462;11.000;2022-08-25T03:28:26;19.70;99.90
37289;DHT22;23174;49.462;11.000;2022-08-25T03:30:27;19.70;99.90
37289;DHT22;23174;49.462;11.000;2022-08-25T03:32:27;19.70;99.90
37289;DHT22;23174;49.462;11.000;2022-08-25T03:34:30;19.70;99.90
37289;DHT22;23174;49.462;11.000;2022-08-25T03:36:31;19.70;99.90
37289;DHT22;23174;49.462;11.000;2022-08-25T03:38:31;19.70;99.90
37289;DHT22;23174;49.462;11.000;2022-08-25T03:40:32;19.70;99.90
37289;DHT22;23174;49.462;11.000;2022-08-25T03:42:33;19.80;99.90
37289;DHT22;23174;49.462;11.000;2022-08-25T03:44:34;19.80;99.90
37289;DHT22;23174;49.462;11.000;2022-08-25T03:46:43;19.80;99.90
37289;DHT22;23174;49.462;11.000;2022-08-25T03:48:44;19.70;99.90
37289;DHT22;23174;49.462;11.000;2022-08-25T03:50:47;19.60;99.90
37289;DHT22;23174;49.462;11.000;2022-08-25T03:52:54;19.60;99.90
37289;DHT22;23174;49.462;11.000;2022-08-25T03:54:54;19.70;99.90
37289;DHT22;23174;49.462;11.000;2022-08-25T03:56:55;19.70;99.90
37289;DHT22;23174;49.462;11.000;2022-08-25T03:58:56;19.70;99.90
37289;DHT22;23174;49.462;11.000;2022-08-25T04:00:56;19.70;99.90
37289;DHT22;23174;49.462;11.000;2022-08-25T04:02:59;19.70;99.90
37289;DHT22;23174;49.462;11.000;2022-08-25T04:05:00;19.70;99.90
37289;DHT22;23174;49.462;11.000;2022-08-25T04:07:01;19.40;99.90
37289;DHT22;23174;49.462;11.000;2022-08-25T04:09:02;19.40;99.90
37289;DHT22;23174;49.462;11.000;2022-08-25T04:11:12;19.30;99.90
37289;DHT22;23174;49.462;11.000;2022-08-25T04:13:13;19.30;99.90
37289;DHT22;23174;49.462;11.000;2022-08-25T04:15:14;19.20;99.90
37289;DHT22;23174;49.462;11.000;2022-08-25T04:17:14;19.30;99.90
37289;DHT22;23174;49.462;11.000;2022-08-25T04:19:15;19.30;99.90
37289;DHT22;23174;49.462;11.000;2022-08-25T04:21:17;19.30;99.90
37289;DHT22;23174;49.462;11.000;2022-08-25T04:23:17;19.30;99.90
37289;DHT22;23174;49.462;11.000;2022-08-25T04:25:18;19.20;99.90
37289;DHT22;23174;49.462;11.000;2022-08-25T04:27:19;19.20;99.90
37289;DHT22;23174;49.462;11.000;2022-08-25T04:29:21;19.20;99.90
37289;DHT22;23174;49.462;11.000;2022-08-25T04:31:22;19.10;99.90
37289;DHT22;23174;49.462;11.000;2022-08-25T04:33:23;19.10;99.90
37289;DHT22;23174;49.462;11.000;2022-08-25T04:35:23;19.20;99.90
37289;DHT22;23174;49.462;11.000;2022-08-25T04:37:24;19.20;99.90
37289;DHT22;23174;49.462;11.000;2022-08-25T04:39:25;19.20;99.90
37289;DHT22;23174;49.462;11.000;2022-08-25T04:41:25;19.10;99.90
37289;DHT22;23174;49.462;11.000;2022-08-25T04:43:27;19.30;99.90
37289;DHT22;23174;49.462;11.000;2022-08-25T04:45:28;19.20;99.90
37289;DHT22;23174;49.462;11.000;2022-08-25T04:47:29;19.30;99.90
37289;DHT22;23174;49.462;11.000;2022-08-25T04:49:30;19.30;99.90
37289;DHT22;23174;49.462;11.000;2022-08-25T04:51:34;19.30;99.90
37289;DHT22;23174;49.462;11.000;2022-08-25T04:53:38;19.20;99.90
37289;DHT22;23174;49.462;11.000;2022-08-25T04:55:43;19.20;99.90
37289;DHT22;23174;49.462;11.000;2022-08-25T04:57:45;19.20;99.90
37289;DHT22;23174;49.462;11.000;2022-08-25T04:59:45;19.30;99.90
37289;DHT22;23174;49.462;11.000;2022-08-25T05:01:46;19.30;99.90
37289;DHT22;23174;49.462;11.000;2022-08-25T05:03:51;19.20;99.90
37289;DHT22;23174;49.462;11.000;2022-08-25T05:05:51;19.20;99.90
37289;DHT22;23174;49.462;11.000;2022-08-25T05:07:52;19.30;99.90
37289;DHT22;23174;49.462;11.000;2022-08-25T05:09:53;19.30;99.90
37289;DHT22;23174;49.462;11.000;2022-08-25T05:11:54;19.20;99.90
37289;DHT22;23174;49.462;11.000;2022-08-25T05:13:56;19.20;99.90
37289;DHT22;23174;49.462;11.000;2022-08-25T05:15:58;19.10;99.90
37289;DHT22;23174;49.462;11.000;2022-08-25T05:17:59;19.20;99.90
37289;DHT22;23174;49.462;11.000;2022-08-25T05:19:59;19.10;99.90
37289;DHT22;23174;49.462;11.000;2022-08-25T05:22:00;19.20;99.90
37289;DHT22;23174;49.462;11.000;2022-08-25T05:24:01;19.10;99.90
37289;DHT22;23174;49.462;11.000;2022-08-25T05:26:14;19.20;99.90
37289;DHT22;23174;49.462;11.000;2022-08-25T05:28:16;19.10;99.90
37289;DHT22;23174;49.462;11.000;2022-08-25T05:30:17;19.20;99.90
37289;DHT22;23174;49.462;11.000;2022-08-25T05:32:18;19.30;99.90
37289;DHT22;23174;49.462;11.000;2022-08-25T05:34:19;19.20;99.90
37289;DHT22;23174;49.462;11.000;2022-08-25T05:36:21;19.20;99.90
37289;DHT22;23174;49.462;11.000;2022-08-25T05:38:22;19.30;99.90
37289;DHT22;23174;49.462;11.000;2022-08-25T05:40:23;19.30;99.90
37289;DHT22;23174;49.462;11.000;2022-08-25T05:42:24;19.30;99.90
37289;DHT22;23174;49.462;11.000;2022-08-25T05:44:24;19.30;99.90
37289;DHT22;23174;49.462;11.000;2022-08-25T05:46:25;19.40;99.90
37289;DHT22;23174;49.462;11.000;2022-08-25T05:48:26;19.30;99.90
37289;DHT22;23174;49.462;11.000;2022-08-25T05:50:26;19.40;99.90
37289;DHT22;23174;49.462;11.000;2022-08-25T05:52:27;19.40;99.90
37289;DHT22;23174;49.462;11.000;2022-08-25T05:54:28;19.30;99.90
37289;DHT22;23174;49.462;11.000;2022-08-25T05:56:28;19.30;99.90
37289;DHT22;23174;49.462;11.000;2022-08-25T05:58:29;19.30;99.90
37289;DHT22;23174;49.462;11.000;2022-08-25T06:00:30;19.30;99.90
37289;DHT22;23174;49.462;11.000;2022-08-25T06:02:31;19.30;99.90
37289;DHT22;23174;49.462;11.000;2022-08-25T06:04:42;19.40;99.90
37289;DHT22;23174;49.462;11.000;2022-08-25T06:06:43;19.40;99.90
37289;DHT22;23174;49.462;11.000;2022-08-25T06:08:44;19.40;99.90
37289;DHT22;23174;49.462;11.000;2022-08-25T06:10:44;19.50;99.90
37289;DHT22;23174;49.462;11.000;2022-08-25T06:12:50;19.40;99.90
37289;DHT22;23174;49.462;11.000;2022-08-25T06:14:51;19.30;99.90
37289;DHT22;23174;49.462;11.000;2022-08-25T06:16:52;19.50;99.90
37289;DHT22;23174;49.462;11.000;2022-08-25T06:18:52;19.50;99.90
37289;DHT22;23174;49.462;11.000;2022-08-25T06:20:54;19.50;99.90
37289;DHT22;23174;49.462;11.000;2022-08-25T06:22:55;19.60;99.90
37289;DHT22;23174;49.462;11.000;2022-08-25T06:24:56;19.60;99.90
37289;DHT22;23174;49.462;11.000;2022-08-25T06:26:57;19.70;99.90
37289;DHT22;23174;49.462;11.000;2022-08-25T06:28:58;19.70;99.90
37289;DHT22;23174;49.462;11.000;2022-08-25T06:30:59;19.80;99.90
37289;DHT22;23174;49.462;11.000;2022-08-25T06:33:00;19.80;99.90
37289;DHT22;23174;49.462;11.000;2022-08-25T06:35:02;19.80;99.90
37289;DHT22;23174;49.462;11.000;2022-08-25T06:37:03;19.90;99.90
37289;DHT22;23174;49.462;11.000;2022-08-25T06:39:03;19.90;99.90
37289;DHT22;23174;49.462;11.000;2022-08-25T06:41:05;20.00;99.90
37289;DHT22;23174;49.462;11.000;2022-08-25T06:43:06;20.00;99.90
37289;DHT22;23174;49.462;11.000;2022-08-25T06:45:08;20.00;99.90
37289;DHT22;23174;49.462;11.000;2022-08-25T06:47:09;20.10;99.90
37289;DHT22;23174;49.462;11.000;2022-08-25T06:49:10;20.10;99.90
37289;DHT22;23174;49.462;11.000;2022-08-25T06:51:13;20.10;99.90
37289;DHT22;23174;49.462;11.000;2022-08-25T06:53:14;20.30;99.90
37289;DHT22;23174;49.462;11.000;2022-08-25T06:55:14;20.30;99.90
37289;DHT22;23174;49.462;11.000;2022-08-25T06:57:15;20.30;99.90
37289;DHT22;23174;49.462;11.000;2022-08-25T06:59:16;20.40;99.90
37289;DHT22;23174;49.462;11.000;2022-08-25T07:01:25;20.50;99.90
37289;DHT22;23174;49.462;11.000;2022-08-25T07:03:54;20.50;99.90
37289;DHT22;23174;49.462;11.000;2022-08-25T07:05:56;20.70;99.90
37289;DHT22;23174;49.462;11.000;2022-08-25T07:07:57;20.70;99.90
37289;DHT22;23174;49.462;11.000;2022-08-25T07:09:57;20.80;99.90
37289;DHT22;23174;49.462;11.000;2022-08-25T07:11:58;20.80;99.90
37289;DHT22;23174;49.462;11.000;2022-08-25T07:14:01;20.80;99.90
37289;DHT22;23174;49.462;11.000;2022-08-25T07:16:03;20.70;99.90
37289;DHT22;23174;49.462;11.000;2022-08-25T07:18:04;20.70;99.90
37289;DHT22;23174;49.462;11.000;2022-08-25T07:20:04;20.70;99.90
37289;DHT22;23174;49.462;11.000;2022-08-25T07:22:05;20.70;99.90
37289;DHT22;23174;49.462;11.000;2022-08-25T07:24:08;20.80;99.90
37289;DHT22;23174;49.462;11.000;2022-08-25T07:26:17;20.90;99.90
37289;DHT22;23174;49.462;11.000;2022-08-25T07:28:20;20.90;99.90
37289;DHT22;23174;49.462;11.000;2022-08-25T07:30:21;20.80;99.90
37289;DHT22;23174;49.462;11.000;2022-08-25T07:32:22;20.90;99.90
37289;DHT22;23174;49.462;11.000;2022-08-25T07:34:23;21.00;99.90
37289;DHT22;23174;49.462;11.000;2022-08-25T07:36:42;21.00;99.90
37289;DHT22;23174;49.462;11.000;2022-08-25T07:38:43;21.00;99.90
37289;DHT22;23174;49.462;11.000;2022-08-25T07:40:44;21.10;99.90
37289;DHT22;23174;49.462;11.000;2022-08-25T07:42:44;21.20;99.90
37289;DHT22;23174;49.462;11.000;2022-08-25T07:44:45;21.30;99.90
37289;DHT22;23174;49.462;11.000;2022-08-25T07:46:46;21.40;99.90
37289;DHT22;23174;49.462;11.000;2022-08-25T07:48:47;21.50;99.90
37289;DHT22;23174;49.462;11.000;2022-08-25T07:50:48;21.50;99.90
37289;DHT22;23174;49.462;11.000;2022-08-25T07:52:49;21.60;99.90
37289;DHT22;23174;49.462;11.000;2022-08-25T07:54:50;21.60;99.90
37289;DHT22;23174;49.462;11.000;2022-08-25T07:56:53;21.70;99.90
37289;DHT22;23174;49.462;11.000;2022-08-25T07:58:54;21.80;99.90
37289;DHT22;23174;49.462;11.000;2022-08-25T08:00:55;21.80;99.90
37289;DHT22;23174;49.462;11.000;2022-08-25T08:02:56;21.80;99.90
37289;DHT22;23174;49.462;11.000;2022-08-25T08:04:58;21.80;99.90
37289;DHT22;23174;49.462;11.000;2022-08-25T08:06:58;22.00;99.90
37289;DHT22;23174;49.462;11.000;2022-08-25T08:08:59;22.10;99.90
37289;DHT22;23174;49.462;11.000;2022-08-25T08:11:01;22.10;99.90
37289;DHT22;23174;49.462;11.000;2022-08-25T08:13:02;22.00;99.90
37289;DHT22;23174;49.462;11.000;2022-08-25T08:15:03;22.10;99.90
37289;DHT22;23174;49.462;11.000;2022-08-25T08:17:06;22.40;99.90
37289;DHT22;23174;49.462;11.000;2022-08-25T08:19:07;22.40;99.90
37289;DHT22;23174;49.462;11.000;2022-08-25T08:21:16;22.40;99.90
37289;DHT22;23174;49.462;11.000;2022-08-25T08:23:17;22.50;99.90
37289;DHT22;23174;49.462;11.000;2022-08-25T08:25:18;22.50;99.90
37289;DHT22;23174;49.462;11.000;2022-08-25T08:27:18;22.60;99.90
37289;DHT22;23174;49.462;11.000;2022-08-25T08:29:19;22.70;99.90
37289;DHT22;23174;49.462;11.000;2022-08-25T08:31:23;22.70;99.90
37289;DHT22;23174;49.462;11.000;2022-08-25T08:33:26;22.60;99.90
37289;DHT22;23174;49.462;11.000;2022-08-25T08:35:27;22.70;99.90
37289;DHT22;23174;49.462;11.000;2022-08-25T08:37:28;22.70;99.90
37289;DHT22;23174;49.462;11.000;2022-08-25T08:39:29;22.70;99.90
37289;DHT22;23174;49.462;11.000;2022-08-25T08:44:41;22.90;99.90
37289;DHT22;23174;49.462;11.000;2022-08-25T08:49:06;22.90;99.90
37289;DHT22;23174;49.462;11.000;2022-08-25T08:51:16;23.10;99.90
37289;DHT22;23174;49.462;11.000;2022-08-25T08:53:30;23.20;99.90
37289;DHT22;23174;49.462;11.000;2022-08-25T08:57:36;23.40;99.90
37289;DHT22;23174;49.462;11.000;2022-08-25T08:59:53;23.40;99.90
37289;DHT22;23174;49.462;11.000;2022-08-25T09:01:59;23.30;99.90
37289;DHT22;23174;49.462;11.000;2022-08-25T09:04:19;23.40;99.90
37289;DHT22;23174;49.462;11.000;2022-08-25T09:06:35;23.40;99.90
37289;DHT22;23174;49.462;11.000;2022-08-25T09:08:38;23.40;99.90
37289;DHT22;23174;49.462;11.000;2022-08-25T09:10:56;23.40;99.90
37289;DHT22;23174;49.462;11.000;2022-08-25T09:13:15;23.50;99.90
37289;DHT22;23174;49.462;11.000;2022-08-25T09:18:05;23.90;99.90
37289;DHT22;23174;49.462;11.000;2022-08-25T09:22:11;23.90;99.90
37289;DHT22;23174;49.462;11.000;2022-08-25T09:29:07;24.40;99.90
37289;DHT22;23174;49.462;11.000;2022-08-25T09:31:25;24.40;99.90
37289;DHT22;23174;49.462;11.000;2022-08-25T09:33:28;24.60;99.90
37289;DHT22;23174;49.462;11.000;2022-08-25T09:35:31;24.40;99.90
37289;DHT22;23174;49.462;11.000;2022-08-25T09:37:32;24.30;99.90
37289;DHT22;23174;49.462;11.000;2022-08-25T09:39:32;24.40;99.90
37289;DHT22;23174;49.462;11.000;2022-08-25T09:41:49;24.50;99.90
37289;DHT22;23174;49.462;11.000;2022-08-25T09:43:53;24.50;99.90
37289;DHT22;23174;49.462;11.000;2022-08-25T09:50:23;24.90;99.90
37289;DHT22;23174;49.462;11.000;2022-08-25T09:52:35;24.90;99.90
37289;DHT22;23174;49.462;11.000;2022-08-25T09:54:37;24.80;99.90
37289;DHT22;23174;49.462;11.000;2022-08-25T09:57:07;24.70;99.90
37289;DHT22;23174;49.462;11.000;2022-08-25T10:01:18;25.10;99.90
37289;DHT22;23174;49.462;11.000;2022-08-25T10:03:21;25.10;99.90
37289;DHT22;23174;49.462;11.000;2022-08-25T10:05:25;25.10;99.90
37289;DHT22;23174;49.462;11.000;2022-08-25T10:07:34;25.20;99.90
37289;DHT22;23174;49.462;11.000;2022-08-25T10:09:41;25.50;99.90
37289;DHT22;23174;49.462;11.000;2022-08-25T10:11:44;25.40;99.90
37289;DHT22;23174;49.462;11.000;2022-08-25T10:13:48;25.30;99.90
37289;DHT22;23174;49.462;11.000;2022-08-25T10:16:25;25.30;99.90
37289;DHT22;23174;49.462;11.000;2022-08-25T10:18:28;25.20;99.90
37289;DHT22;23174;49.462;11.000;2022-08-25T10:20:28;25.20;99.90
37289;DHT22;23174;49.462;11.000;2022-08-25T10:22:29;25.20;99.90
37289;DHT22;23174;49.462;11.000;2022-08-25T10:24:34;25.30;99.90
37289;DHT22;23174;49.462;11.000;2022-08-25T10:26:42;25.30;99.90
37289;DHT22;23174;49.462;11.000;2022-08-25T10:29:04;25.20;99.90
37289;DHT22;23174;49.462;11.000;2022-08-25T10:35:31;25.00;99.90
37289;DHT22;23174;49.462;11.000;2022-08-25T10:37:44;25.00;99.90
37289;DHT22;23174;49.462;11.000;2022-08-25T10:42:30;25.30;99.90
37289;DHT22;23174;49.462;11.000;2022-08-25T10:44:48;25.10;99.90
37289;DHT22;23174;49.462;11.000;2022-08-25T10:49:37;25.50;99.90
37289;DHT22;23174;49.462;11.000;2022-08-25T10:51:54;25.60;99.90
37289;DHT22;23174;49.462;11.000;2022-08-25T10:56:40;25.50;99.90
37289;DHT22;23174;49.462;11.000;2022-08-25T10:59:06;25.60;99.90
37289;DHT22;23174;49.462;11.000;2022-08-25T11:01:18;25.80;99.90
37289;DHT22;23174;49.462;11.000;2022-08-25T11:03:29;25.60;99.90
37289;DHT22;23174;49.462;11.000;2022-08-25T11:05:39;25.60;99.90
37289;DHT22;23174;49.462;11.000;2022-08-25T11:07:47;25.60;99.90
37289;DHT22;23174;49.462;11.000;2022-08-25T11:09:49;25.70;99.90
37289;DHT22;23174;49.462;11.000;2022-08-25T11:12:07;25.70;99.90
37289;DHT22;23174;49.462;11.000;2022-08-25T11:14:20;25.90;99.90
37289;DHT22;23174;49.462;11.000;2022-08-25T11:16:49;26.10;99.90
37289;DHT22;23174;49.462;11.000;2022-08-25T11:19:22;26.30;99.90
37289;DHT22;23174;49.462;11.000;2022-08-25T11:24:02;26.30;99.90
37289;DHT22;23174;49.462;11.000;2022-08-25T11:26:11;26.20;99.90
37289;DHT22;23174;49.462;11.000;2022-08-25T11:28:33;26.30;99.90
37289;DHT22;23174;49.462;11.000;2022-08-25T11:30:35;26.30;99.90
37289;DHT22;23174;49.462;11.000;2022-08-25T11:32:38;26.30;99.90
37289;DHT22;23174;49.462;11.000;2022-08-25T11:34:39;26.20;99.90
37289;DHT22;23174;49.462;11.000;2022-08-25T11:36:42;26.20;99.90
37289;DHT22;23174;49.462;11.000;2022-08-25T11:43:07;26.50;99.90
37289;DHT22;23174;49.462;11.000;2022-08-25T11:50:04;26.60;99.90
37289;DHT22;23174;49.462;11.000;2022-08-25T11:54:37;26.30;99.90
37289;DHT22;23174;49.462;11.000;2022-08-25T11:56:59;26.30;99.90
37289;DHT22;23174;49.462;11.000;2022-08-25T11:59:01;26.30;99.90
37289;DHT22;23174;49.462;11.000;2022-08-25T12:01:05;26.30;99.90
37289;DHT22;23174;49.462;11.000;2022-08-25T12:11:52;26.00;99.90
37289;DHT22;23174;49.462;11.000;2022-08-25T12:14:15;25.90;99.90
37289;DHT22;23174;49.462;11.000;2022-08-25T12:16:39;26.00;99.90
37289;DHT22;23174;49.462;11.000;2022-08-25T12:18:41;26.00;99.90
37289;DHT22;23174;49.462;11.000;2022-08-25T12:22:56;26.10;99.90
37289;DHT22;23174;49.462;11.000;2022-08-25T12:25:05;26.10;99.90
37289;DHT22;23174;49.462;11.000;2022-08-25T12:27:21;26.10;99.90
37289;DHT22;23174;49.462;11.000;2022-08-25T12:34:30;26.40;99.90
37289;DHT22;23174;49.462;11.000;2022-08-25T12:36:32;26.50;99.90
37289;DHT22;23174;49.462;11.000;2022-08-25T12:42:43;26.40;99.90
37289;DHT22;23174;49.462;11.000;2022-08-25T12:44:46;26.40;99.90
37289;DHT22;23174;49.462;11.000;2022-08-25T12:47:06;26.30;99.90
37289;DHT22;23174;49.462;11.000;2022-08-25T12:53:47;26.50;99.90
37289;DHT22;23174;49.462;11.000;2022-08-25T12:55:53;26.60;99.90
37289;DHT22;23174;49.462;11.000;2022-08-25T12:57:56;26.60;99.90
37289;DHT22;23174;49.462;11.000;2022-08-25T13:10:02;26.80;99.90
37289;DHT22;23174;49.462;11.000;2022-08-25T13:14:16;27.10;99.90
37289;DHT22;23174;49.462;11.000;2022-08-25T13:16:20;27.10;99.90
37289;DHT22;23174;49.462;11.000;2022-08-25T13:18:28;27.10;99.90
37289;DHT22;23174;49.462;11.000;2022-08-25T13:20:29;27.20;99.90
37289;DHT22;23174;49.462;11.000;2022-08-25T13:22:30;27.30;99.90
37289;DHT22;23174;49.462;11.000;2022-08-25T13:24:34;27.40;99.90
37289;DHT22;23174;49.462;11.000;2022-08-25T13:26:41;27.30;99.90
37289;DHT22;23174;49.462;11.000;2022-08-25T13:28:43;27.30;99.90
37289;DHT22;23174;49.462;11.000;2022-08-25T13:30:43;27.40;99.90
37289;DHT22;23174;49.462;11.000;2022-08-25T13:32:44;27.40;99.90
37289;DHT22;23174;49.462;11.000;2022-08-25T13:34:44;27.30;99.90
37289;DHT22;23174;49.462;11.000;2022-08-25T13:36:47;27.20;99.90
37289;DHT22;23174;49.462;11.000;2022-08-25T13:39:18;27.20;99.90
37289;DHT22;23174;49.462;11.000;2022-08-25T13:41:24;27.10;99.90
37289;DHT22;23174;49.462;11.000;2022-08-25T13:43:25;27.00;99.90
37289;DHT22;23174;49.462;11.000;2022-08-25T13:45:28;26.90;99.90
37289;DHT22;23174;49.462;11.000;2022-08-25T13:47:35;27.00;99.90
37289;DHT22;23174;49.462;11.000;2022-08-25T13:49:37;27.10;99.90
37289;DHT22;23174;49.462;11.000;2022-08-25T13:51:48;27.10;99.90
37289;DHT22;23174;49.462;11.000;2022-08-25T13:53:54;27.10;99.90
37289;DHT22;23174;49.462;11.000;2022-08-25T13:56:00;27.20;99.90
37289;DHT22;23174;49.462;11.000;2022-08-25T13:58:02;27.40;99.90
37289;DHT22;23174;49.462;11.000;2022-08-25T14:00:07;27.50;99.90
37289;DHT22;23174;49.462;11.000;2022-08-25T14:02:10;27.50;99.90
37289;DHT22;23174;49.462;11.000;2022-08-25T14:04:32;27.40;99.90
37289;DHT22;23174;49.462;11.000;2022-08-25T14:06:44;27.40;99.90
37289;DHT22;23174;49.462;11.000;2022-08-25T14:09:06;27.30;99.90
37289;DHT22;23174;49.462;11.000;2022-08-25T14:11:31;27.30;99.90
37289;DHT22;23174;49.462;11.000;2022-08-25T14:13:34;27.20;99.90
37289;DHT22;23174;49.462;11.000;2022-08-25T14:15:35;27.30;99.90
37289;DHT22;23174;49.462;11.000;2022-08-25T14:17:40;27.20;99.90
37289;DHT22;23174;49.462;11.000;2022-08-25T14:19:45;27.20;99.90
37289;DHT22;23174;49.462;11.000;2022-08-25T14:21:46;27.30;99.90